sensor_id;sensor_type;location;lat;lon;timestamp;pressure;altitude;pressure_sealevel;temperature;humidity
68889;BME280;55930;47.412;8.790;2022-09-16T00:00:16;94189.00;;;13.44;100.00
68889;BME280;55930;47.412;8.790;2022-09-16T00:02:51;94191.66;;;13.49;100.00
68889;BME280;55930;47.412;8.790;2022-09-16T00:05:20;94190.47;;;13.45;100.00
68889;BME280;55930;47.412;8.790;2022-09-16T00:07:45;94189.00;;;13.38;100.00
68889;BME280;55930;47.412;8.790;2022-09-16T00:10:11;94189.50;;;13.36;100.00
68889;BME280;55930;47.412;8.790;2022-09-16T00:12:39;94197.25;;;13.34;100.00
68889;BME280;55930;47.412;8.790;2022-09-16T00:15:05;94202.31;;;13.27;100.00
68889;BME280;55930;47.412;8.790;2022-09-16T00:17:34;94202.56;;;13.34;100.00
68889;BME280;55930;47.412;8.790;2022-09-16T00:19:59;94207.19;;;13.39;100.00
68889;BME280;55930;47.412;8.790;2022-09-16T00:22:27;94197.47;;;13.42;100.00
68889;BME280;55930;47.412;8.790;2022-09-16T00:24:55;94201.63;;;13.49;100.00
68889;BME280;55930;47.412;8.790;2022-09-16T00:27:21;94197.47;;;13.42;100.00
68889;BME280;55930;47.412;8.790;2022-09-16T00:29:46;94200.38;;;13.44;100.00
68889;BME280;55930;47.412;8.790;2022-09-16T00:32:12;94199.41;;;13.41;100.00
68889;BME280;55930;47.412;8.790;2022-09-16T00:34:37;94200.88;;;13.48;100.00
68889;BME280;55930;47.412;8.790;2022-09-16T00:37:06;94199.66;;;13.49;100.00
68889;BME280;55930;47.412;8.790;2022-09-16T00:39:34;94199.44;;;13.36;100.00
68889;BME280;55930;47.412;8.790;2022-09-16T00:42:02;94212.28;;;13.32;100.00
68889;BME280;55930;47.412;8.790;2022-09-16T00:45:05;94214.19;;;13.37;100.00
68889;BME280;55930;47.412;8.790;2022-09-16T00:50:21;94230.44;;;13.56;100.00
68889;BME280;55930;47.412;8.790;2022-09-16T00:52:48;94220.75;;;13.30;100.00
68889;BME280;55930;47.412;8.790;2022-09-16T00:55:20;94221.94;;;13.18;100.00
68889;BME280;55930;47.412;8.790;2022-09-16T00:57:47;94222.66;;;13.13;100.00
68889;BME280;55930;47.412;8.790;2022-09-16T01:00:13;94218.50;;;13.12;100.00
68889;BME280;55930;47.412;8.790;2022-09-16T01:02:43;94218.56;;;13.29;100.00
68889;BME280;55930;47.412;8.790;2022-09-16T01:05:14;94217.81;;;13.28;100.00
68889;BME280;55930;47.412;8.790;2022-09-16T01:07:46;94213.91;;;13.07;100.00
68889;BME280;55930;47.412;8.790;2022-09-16T01:10:15;94213.41;;;13.03;100.00
68889;BME280;55930;47.412;8.790;2022-09-16T01:12:44;94198.47;;;13.22;100.00
68889;BME280;55930;47.412;8.790;2022-09-16T01:15:11;94199.66;;;13.27;100.00
68889;BME280;55930;47.412;8.790;2022-09-16T01:32:14;94208.63;;;13.18;100.00
68889;BME280;55930;47.412;8.790;2022-09-16T01:40:31;94219.22;;;12.96;100.00
68889;BME280;55930;47.412;8.790;2022-09-16T01:48:21;94197.66;;;12.94;100.00
68889;BME280;55930;47.412;8.790;2022-09-16T01:53:27;94188.97;;;12.99;100.00
68889;BME280;55930;47.412;8.790;2022-09-16T01:56:07;94191.38;;;12.97;100.00
68889;BME280;55930;47.412;8.790;2022-09-16T01:58:47;94183.41;;;12.97;100.00
68889;BME280;55930;47.412;8.790;2022-09-16T02:03:57;94185.81;;;12.95;100.00
68889;BME280;55930;47.412;8.790;2022-09-16T02:06:25;94186.53;;;12.84;100.00
68889;BME280;55930;47.412;8.790;2022-09-16T02:09:02;94193.28;;;12.74;100.00
68889;BME280;55930;47.412;8.790;2022-09-16T02:11:30;94188.94;;;12.82;100.00
68889;BME280;55930;47.412;8.790;2022-09-16T02:16:28;94190.66;;;13.02;100.00
68889;BME280;55930;47.412;8.790;2022-09-16T02:18:59;94186.28;;;12.88;100.00
68889;BME280;55930;47.412;8.790;2022-09-16T02:21:30;94187.25;;;12.90;100.00
68889;BME280;55930;47.412;8.790;2022-09-16T02:24:00;94190.16;;;12.81;100.00
68889;BME280;55930;47.412;8.790;2022-09-16T02:26:33;94192.31;;;12.77;100.00
68889;BME280;55930;47.412;8.790;2022-09-16T02:29:04;94191.34;;;12.80;100.00
68889;BME280;55930;47.412;8.790;2022-09-16T02:31:36;94190.41;;;12.94;100.00
68889;BME280;55930;47.412;8.790;2022-09-16T02:34:08;94187.25;;;12.85;100.00
68889;BME280;55930;47.412;8.790;2022-09-16T02:36:41;94182.38;;;12.78;100.00
68889;BME280;55930;47.412;8.790;2022-09-16T02:39:10;94177.56;;;12.87;100.00
68889;BME280;55930;47.412;8.790;2022-09-16T02:41:37;94169.59;;;12.82;100.00
68889;BME280;55930;47.412;8.790;2022-09-16T02:44:04;94174.91;;;12.82;100.00
68889;BME280;55930;47.412;8.790;2022-09-16T02:46:59;94171.50;;;12.87;100.00
68889;BME280;55930;47.412;8.790;2022-09-16T02:52:22;94171.97;;;12.63;100.00
68889;BME280;55930;47.412;8.790;2022-09-16T02:57:30;94170.28;;;12.65;100.00
68889;BME280;55930;47.412;8.790;2022-09-16T02:59:55;94166.41;;;12.61;100.00
68889;BME280;55930;47.412;8.790;2022-09-16T03:02:21;94164.00;;;12.69;100.00
68889;BME280;55930;47.412;8.790;2022-09-16T03:04:47;94158.69;;;12.85;100.00
68889;BME280;55930;47.412;8.790;2022-09-16T03:07:15;94161.56;;;12.65;100.00
68889;BME280;55930;47.412;8.790;2022-09-16T03:09:43;94149.25;;;12.68;100.00
68889;BME280;55930;47.412;8.790;2022-09-16T03:12:23;94150.44;;;12.78;100.00
68889;BME280;55930;47.412;8.790;2022-09-16T03:23:24;94134.69;;;12.57;100.00
68889;BME280;55930;47.412;8.790;2022-09-16T03:31:02;94117.03;;;12.43;100.00
68889;BME280;55930;47.412;8.790;2022-09-16T03:33:41;94114.34;;;12.38;100.00
68889;BME280;55930;47.412;8.790;2022-09-16T03:36:14;94115.56;;;12.48;100.00
68889;BME280;55930;47.412;8.790;2022-09-16T03:38:42;94112.22;;;12.53;100.00
68889;BME280;55930;47.412;8.790;2022-09-16T03:41:09;94113.59;;;12.37;100.00
68889;BME280;55930;47.412;8.790;2022-09-16T03:43:35;94108.78;;;12.47;100.00
68889;BME280;55930;47.412;8.790;2022-09-16T03:46:01;94113.38;;;12.41;100.00
68889;BME280;55930;47.412;8.790;2022-09-16T03:48:27;94112.66;;;12.40;100.00
68889;BME280;55930;47.412;8.790;2022-09-16T03:50:52;94109.78;;;12.44;100.00
68889;BME280;55930;47.412;8.790;2022-09-16T03:53:18;94104.94;;;12.53;100.00
68889;BME280;55930;47.412;8.790;2022-09-16T03:55:43;94110.00;;;12.35;100.00
68889;BME280;55930;47.412;8.790;2022-09-16T03:58:09;94096.69;;;12.29;100.00
68889;BME280;55930;47.412;8.790;2022-09-16T04:00:35;94091.63;;;12.42;100.00
68889;BME280;55930;47.412;8.790;2022-09-16T04:03:01;94102.97;;;12.32;100.00
68889;BME280;55930;47.412;8.790;2022-09-16T04:05:26;94097.16;;;12.33;100.00
68889;BME280;55930;47.412;8.790;2022-09-16T04:07:52;94093.56;;;12.42;100.00
68889;BME280;55930;47.412;8.790;2022-09-16T04:10:17;94094.75;;;12.46;100.00
68889;BME280;55930;47.412;8.790;2022-09-16T04:12:45;94086.31;;;12.42;100.00
68889;BME280;55930;47.412;8.790;2022-09-16T04:15:11;94089.44;;;12.35;100.00
68889;BME280;55930;47.412;8.790;2022-09-16T04:17:36;94081.94;;;12.39;100.00
68889;BME280;55930;47.412;8.790;2022-09-16T04:20:05;94080.97;;;12.31;100.00
68889;BME280;55930;47.412;8.790;2022-09-16T04:22:32;94075.84;;;12.22;100.00
68889;BME280;55930;47.412;8.790;2022-09-16T04:24:57;94080.22;;;12.25;100.00
68889;BME280;55930;47.412;8.790;2022-09-16T04:27:23;94078.28;;;12.25;100.00
68889;BME280;55930;47.412;8.790;2022-09-16T04:29:49;94077.34;;;12.29;100.00
68889;BME280;55930;47.412;8.790;2022-09-16T04:32:14;94073.44;;;12.24;100.00
68889;BME280;55930;47.412;8.790;2022-09-16T04:34:39;94071.28;;;12.34;100.00
68889;BME280;55930;47.412;8.790;2022-09-16T04:37:08;94074.69;;;12.34;100.00
68889;BME280;55930;47.412;8.790;2022-09-16T04:39:36;94076.38;;;12.48;100.00
68889;BME280;55930;47.412;8.790;2022-09-16T04:42:04;94079.06;;;12.48;100.00
68889;BME280;55930;47.412;8.790;2022-09-16T04:44:31;94081.72;;;12.48;100.00
68889;BME280;55930;47.412;8.790;2022-09-16T04:46:56;94083.91;;;12.61;100.00
68889;BME280;55930;47.412;8.790;2022-09-16T04:49:25;94084.88;;;12.63;100.00
68889;BME280;55930;47.412;8.790;2022-09-16T04:51:51;94085.59;;;12.58;100.00
68889;BME280;55930;47.412;8.790;2022-09-16T04:54:16;94088.25;;;12.64;100.00
68889;BME280;55930;47.412;8.790;2022-09-16T04:56:42;94086.31;;;12.70;100.00
68889;BME280;55930;47.412;8.790;2022-09-16T04:59:08;94094.56;;;12.67;100.00
68889;BME280;55930;47.412;8.790;2022-09-16T05:01:36;94094.31;;;12.64;100.00
68889;BME280;55930;47.412;8.790;2022-09-16T05:04:04;94087.53;;;12.58;100.00
68889;BME280;55930;47.412;8.790;2022-09-16T05:06:38;94087.75;;;12.49;100.00
68889;BME280;55930;47.412;8.790;2022-09-16T05:09:08;94099.81;;;12.39;100.00
68889;BME280;55930;47.412;8.790;2022-09-16T05:11:37;94089.19;;;12.39;100.00
68889;BME280;55930;47.412;8.790;2022-09-16T05:14:14;94090.38;;;12.26;100.00
68889;BME280;55930;47.412;8.790;2022-09-16T05:16:40;94096.66;;;12.23;100.00
68889;BME280;55930;47.412;8.790;2022-09-16T05:19:10;94094.47;;;12.22;100.00
68889;BME280;55930;47.412;8.790;2022-09-16T05:21:36;94100.28;;;12.26;100.00
68889;BME280;55930;47.412;8.790;2022-09-16T05:24:04;94101.03;;;12.32;100.00
68889;BME280;55930;47.412;8.790;2022-09-16T05:26:32;94095.72;;;12.38;100.00
68889;BME280;55930;47.412;8.790;2022-09-16T05:29:03;94097.94;;;12.50;100.00
68889;BME280;55930;47.412;8.790;2022-09-16T05:31:34;94090.69;;;12.51;100.00
68889;BME280;55930;47.412;8.790;2022-09-16T05:36:29;94092.34;;;12.48;100.00
68889;BME280;55930;47.412;8.790;2022-09-16T05:38:55;94094.28;;;12.42;100.00
68889;BME280;55930;47.412;8.790;2022-09-16T05:41:21;94093.34;;;12.51;100.00
68889;BME280;55930;47.412;8.790;2022-09-16T05:43:49;94097.19;;;12.55;100.00
68889;BME280;55930;47.412;8.790;2022-09-16T05:46:20;94098.19;;;12.86;100.00
68889;BME280;55930;47.412;8.790;2022-09-16T05:48:46;94095.31;;;12.84;100.00
68889;BME280;55930;47.412;8.790;2022-09-16T05:51:18;94099.16;;;12.83;100.00
68889;BME280;55930;47.412;8.790;2022-09-16T05:53:45;94102.31;;;12.76;100.00
68889;BME280;55930;47.412;8.790;2022-09-16T05:56:16;94100.88;;;12.91;100.00
68889;BME280;55930;47.412;8.790;2022-09-16T05:58:42;94104.22;;;13.42;100.00
68889;BME280;55930;47.412;8.790;2022-09-16T06:01:15;94100.69;;;13.92;100.00
68889;BME280;55930;47.412;8.790;2022-09-16T06:03:46;94094.66;;;14.43;100.00
68889;BME280;55930;47.412;8.790;2022-09-16T06:06:21;94099.56;;;14.28;100.00
68889;BME280;55930;47.412;8.790;2022-09-16T06:08:47;94103.34;;;14.49;100.00
68889;BME280;55930;47.412;8.790;2022-09-16T06:11:13;94104.38;;;14.41;100.00
68889;BME280;55930;47.412;8.790;2022-09-16T06:13:39;94107.06;;;14.30;100.00
68889;BME280;55930;47.412;8.790;2022-09-16T06:16:09;94103.31;;;14.03;100.00
68889;BME280;55930;47.412;8.790;2022-09-16T06:18:35;94107.50;;;13.87;100.00
68889;BME280;55930;47.412;8.790;2022-09-16T06:21:05;94104.56;;;13.96;100.00
68889;BME280;55930;47.412;8.790;2022-09-16T06:23:31;94115.47;;;13.93;100.00
68889;BME280;55930;47.412;8.790;2022-09-16T06:26:03;94110.88;;;13.93;100.00
68889;BME280;55930;47.412;8.790;2022-09-16T06:28:29;94116.91;;;13.99;100.00
68889;BME280;55930;47.412;8.790;2022-09-16T06:31:06;94119.34;;;14.03;100.00
68889;BME280;55930;47.412;8.790;2022-09-16T06:33:35;94120.06;;;14.03;100.00
68889;BME280;55930;47.412;8.790;2022-09-16T06:36:04;94105.78;;;13.90;100.00
68889;BME280;55930;47.412;8.790;2022-09-16T06:38:32;94118.38;;;14.00;100.00
68889;BME280;55930;47.412;8.790;2022-09-16T06:41:06;94112.78;;;14.04;100.00
68889;BME280;55930;47.412;8.790;2022-09-16T06:43:32;94125.13;;;14.12;100.00
68889;BME280;55930;47.412;8.790;2022-09-16T06:46:02;94117.72;;;14.41;100.00
68889;BME280;55930;47.412;8.790;2022-09-16T06:48:30;94117.44;;;14.50;100.00
68889;BME280;55930;47.412;8.790;2022-09-16T06:50:57;94127.28;;;14.66;100.00
68889;BME280;55930;47.412;8.790;2022-09-16T06:53:23;94127.19;;;14.77;100.00
68889;BME280;55930;47.412;8.790;2022-09-16T06:55:49;94122.28;;;14.51;100.00
68889;BME280;55930;47.412;8.790;2022-09-16T06:58:15;94122.47;;;14.59;100.00
68889;BME280;55930;47.412;8.790;2022-09-16T07:00:40;94127.00;;;14.70;99.93
68889;BME280;55930;47.412;8.790;2022-09-16T07:03:06;94127.56;;;14.92;99.21
68889;BME280;55930;47.412;8.790;2022-09-16T07:05:31;94127.06;;;15.00;100.00
68889;BME280;55930;47.412;8.790;2022-09-16T07:07:57;94125.19;;;14.89;99.07
68889;BME280;55930;47.412;8.790;2022-09-16T07:10:22;94136.28;;;14.99;98.37
68889;BME280;55930;47.412;8.790;2022-09-16T07:12:49;94134.16;;;14.91;99.57
68889;BME280;55930;47.412;8.790;2022-09-16T07:15:15;94133.66;;;14.93;99.21
68889;BME280;55930;47.412;8.790;2022-09-16T07:17:40;94130.94;;;14.99;99.39
68889;BME280;55930;47.412;8.790;2022-09-16T07:20:06;94135.97;;;15.08;99.05
68889;BME280;55930;47.412;8.790;2022-09-16T07:22:31;94136.28;;;14.99;99.19
68889;BME280;55930;47.412;8.790;2022-09-16T07:24:59;94129.97;;;15.31;98.61
68889;BME280;55930;47.412;8.790;2022-09-16T07:27:24;94137.47;;;15.63;97.65
68889;BME280;55930;47.412;8.790;2022-09-16T07:29:50;94132.47;;;15.48;98.04
68889;BME280;55930;47.412;8.790;2022-09-16T07:32:15;94139.91;;;15.61;96.25
68889;BME280;55930;47.412;8.790;2022-09-16T07:34:41;94143.63;;;15.52;97.67
68889;BME280;55930;47.412;8.790;2022-09-16T07:37:06;94143.81;;;15.30;97.69
68889;BME280;55930;47.412;8.790;2022-09-16T07:39:31;94145.03;;;15.29;98.13
68889;BME280;55930;47.412;8.790;2022-09-16T07:41:57;94150.72;;;15.44;98.76
68889;BME280;55930;47.412;8.790;2022-09-16T07:44:23;94153.34;;;15.55;97.48
68889;BME280;55930;47.412;8.790;2022-09-16T07:46:49;94158.16;;;15.57;99.13
68889;BME280;55930;47.412;8.790;2022-09-16T07:49:15;94151.41;;;15.20;100.00
68889;BME280;55930;47.412;8.790;2022-09-16T07:51:42;94146.25;;;15.28;100.00
68889;BME280;55930;47.412;8.790;2022-09-16T07:54:10;94152.59;;;15.25;99.05
68889;BME280;55930;47.412;8.790;2022-09-16T07:56:37;94157.25;;;15.54;98.42
68889;BME280;55930;47.412;8.790;2022-09-16T07:59:05;94157.97;;;15.79;96.92
68889;BME280;55930;47.412;8.790;2022-09-16T08:01:32;94153.56;;;15.57;98.40
68889;BME280;55930;47.412;8.790;2022-09-16T08:03:58;94158.56;;;15.66;96.67
68889;BME280;55930;47.412;8.790;2022-09-16T08:06:28;94164.63;;;16.16;93.71
68889;BME280;55930;47.412;8.790;2022-09-16T08:08:57;94156.47;;;16.27;92.48
68889;BME280;55930;47.412;8.790;2022-09-16T08:11:25;94164.09;;;16.41;92.61
68889;BME280;55930;47.412;8.790;2022-09-16T08:13:51;94162.28;;;16.68;92.37
68889;BME280;55930;47.412;8.790;2022-09-16T08:16:19;94165.22;;;17.34;85.10
68889;BME280;55930;47.412;8.790;2022-09-16T08:18:46;94157.94;;;17.93;80.24
68889;BME280;55930;47.412;8.790;2022-09-16T08:21:17;94139.94;;;22.71;63.03
68889;BME280;55930;47.412;8.790;2022-09-16T08:23:43;94129.84;;;26.78;49.17
68889;BME280;55930;47.412;8.790;2022-09-16T08:26:12;94128.00;;;25.38;48.90
68889;BME280;55930;47.412;8.790;2022-09-16T08:28:40;94140.13;;;27.08;47.01
68889;BME280;55930;47.412;8.790;2022-09-16T08:31:07;94141.88;;;27.44;43.23
68889;BME280;55930;47.412;8.790;2022-09-16T08:33:33;94144.72;;;25.80;45.60
68889;BME280;55930;47.412;8.790;2022-09-16T08:36:07;94135.72;;;26.84;47.18
68889;BME280;55930;47.412;8.790;2022-09-16T08:38:35;94141.53;;;25.01;50.70
68889;BME280;55930;47.412;8.790;2022-09-16T08:46:52;94146.47;;;27.01;44.78
68889;BME280;55930;47.412;8.790;2022-09-16T08:49:45;94143.09;;;22.92;52.26
68889;BME280;55930;47.412;8.790;2022-09-16T08:52:11;94149.50;;;23.12;51.68
68889;BME280;55930;47.412;8.790;2022-09-16T08:54:43;94150.78;;;20.43;61.42
68889;BME280;55930;47.412;8.790;2022-09-16T08:57:13;94157.09;;;20.17;62.85
68889;BME280;55930;47.412;8.790;2022-09-16T08:59:54;94150.94;;;20.45;63.69
68889;BME280;55930;47.412;8.790;2022-09-16T09:10:54;94143.00;;;20.90;57.75
68889;BME280;55930;47.412;8.790;2022-09-16T09:21:43;94129.06;;;20.56;61.31
68889;BME280;55930;47.412;8.790;2022-09-16T09:27:22;94129.34;;;22.65;51.96
68889;BME280;55930;47.412;8.790;2022-09-16T09:39:11;94122.25;;;24.01;48.64
68889;BME280;55930;47.412;8.790;2022-09-16T09:47:27;94106.16;;;21.84;51.29
68889;BME280;55930;47.412;8.790;2022-09-16T09:50:00;94111.66;;;27.92;40.33
68889;BME280;55930;47.412;8.790;2022-09-16T09:52:32;94103.09;;;25.97;42.12
68889;BME280;55930;47.412;8.790;2022-09-16T09:55:21;94104.47;;;24.42;45.70
68889;BME280;55930;47.412;8.790;2022-09-16T10:00:18;94107.81;;;25.77;43.53
68889;BME280;55930;47.412;8.790;2022-09-16T10:02:45;94105.13;;;26.54;41.04
68889;BME280;55930;47.412;8.790;2022-09-16T10:07:49;94111.78;;;21.56;52.71
68889;BME280;55930;47.412;8.790;2022-09-16T10:10:19;94102.38;;;20.96;56.06
68889;BME280;55930;47.412;8.790;2022-09-16T10:12:45;94107.28;;;19.74;58.48
68889;BME280;55930;47.412;8.790;2022-09-16T10:15:28;94111.34;;;19.39;60.58
68889;BME280;55930;47.412;8.790;2022-09-16T10:17:57;94116.59;;;19.03;62.00
68889;BME280;55930;47.412;8.790;2022-09-16T10:20:32;94115.44;;;18.31;63.97
68889;BME280;55930;47.412;8.790;2022-09-16T10:25:29;94131.41;;;17.76;67.84
68889;BME280;55930;47.412;8.790;2022-09-16T10:27:59;94119.03;;;16.96;72.61
68889;BME280;55930;47.412;8.790;2022-09-16T10:30:50;94123.03;;;17.21;75.95
68889;BME280;55930;47.412;8.790;2022-09-16T10:35:54;94128.75;;;16.24;81.72
68889;BME280;55930;47.412;8.790;2022-09-16T10:38:24;94120.06;;;16.37;83.02
68889;BME280;55930;47.412;8.790;2022-09-16T10:40:51;94132.00;;;15.74;85.89
68889;BME280;55930;47.412;8.790;2022-09-16T10:43:17;94136.22;;;15.40;89.19
68889;BME280;55930;47.412;8.790;2022-09-16T10:45:49;94145.59;;;15.22;91.44
68889;BME280;55930;47.412;8.790;2022-09-16T10:48:23;94148.66;;;15.31;90.83
68889;BME280;55930;47.412;8.790;2022-09-16T10:50:59;94151.44;;;15.75;89.61
68889;BME280;55930;47.412;8.790;2022-09-16T10:53:36;94147.22;;;15.30;91.26
68889;BME280;55930;47.412;8.790;2022-09-16T10:56:05;94142.25;;;15.16;92.60
68889;BME280;55930;47.412;8.790;2022-09-16T10:58:31;94146.06;;;14.90;93.36
68889;BME280;55930;47.412;8.790;2022-09-16T11:06:42;94146.28;;;15.52;90.92
68889;BME280;55930;47.412;8.790;2022-09-16T11:22:54;94145.69;;;15.65;90.48
68889;BME280;55930;47.412;8.790;2022-09-16T11:44:31;94148.00;;;15.50;92.14
68889;BME280;55930;47.412;8.790;2022-09-16T11:58:43;94139.75;;;15.23;93.96
68889;BME280;55930;47.412;8.790;2022-09-16T12:01:30;94135.19;;;14.83;91.82
68889;BME280;55930;47.412;8.790;2022-09-16T12:04:11;94138.56;;;15.19;91.33
68889;BME280;55930;47.412;8.790;2022-09-16T12:09:46;94137.09;;;15.18;91.96
68889;BME280;55930;47.412;8.790;2022-09-16T12:12:22;94136.44;;;14.76;92.71
68889;BME280;55930;47.412;8.790;2022-09-16T12:14:57;94132.91;;;15.28;92.39
68889;BME280;55930;47.412;8.790;2022-09-16T12:17:27;94134.94;;;15.46;90.73
68889;BME280;55930;47.412;8.790;2022-09-16T12:20:50;94135.44;;;15.15;89.99
68889;BME280;55930;47.412;8.790;2022-09-16T12:22:54;94143.34;;;14.96;89.55
68889;BME280;55930;47.412;8.790;2022-09-16T12:25:38;94138.97;;;14.99;90.29
68889;BME280;55930;47.412;8.790;2022-09-16T12:28:31;94142.84;;;14.98;91.03
68889;BME280;55930;47.412;8.790;2022-09-16T12:31:20;94138.97;;;14.93;88.78
68889;BME280;55930;47.412;8.790;2022-09-16T12:33:53;94139.25;;;14.89;89.48
68889;BME280;55930;47.412;8.790;2022-09-16T12:36:29;94143.28;;;15.07;87.81
68889;BME280;55930;47.412;8.790;2022-09-16T12:38:57;94146.38;;;14.81;90.64
68889;BME280;55930;47.412;8.790;2022-09-16T12:44:06;94155.00;;;14.93;92.49
68889;BME280;55930;47.412;8.790;2022-09-16T13:03:18;94146.56;;;15.19;86.91
68889;BME280;55930;47.412;8.790;2022-09-16T13:05:50;94151.28;;;15.07;87.69
68889;BME280;55930;47.412;8.790;2022-09-16T13:08:21;94147.91;;;15.01;88.49
68889;BME280;55930;47.412;8.790;2022-09-16T13:10:57;94149.53;;;15.15;85.12
68889;BME280;55930;47.412;8.790;2022-09-16T13:13:31;94144.78;;;14.97;87.07
68889;BME280;55930;47.412;8.790;2022-09-16T13:16:02;94144.13;;;14.91;85.37
68889;BME280;55930;47.412;8.790;2022-09-16T13:18:43;94137.38;;;14.84;84.71
68889;BME280;55930;47.412;8.790;2022-09-16T13:21:26;94135.56;;;14.98;86.08
68889;BME280;55930;47.412;8.790;2022-09-16T13:26:59;94134.41;;;14.88;86.65
68889;BME280;55930;47.412;8.790;2022-09-16T13:32:02;94142.63;;;14.96;92.09
68889;BME280;55930;47.412;8.790;2022-09-16T13:34:29;94140.31;;;15.11;93.17
68889;BME280;55930;47.412;8.790;2022-09-16T13:36:55;94141.03;;;14.81;89.33
68889;BME280;55930;47.412;8.790;2022-09-16T13:39:30;94141.44;;;14.91;91.74
68889;BME280;55930;47.412;8.790;2022-09-16T13:42:09;94143.09;;;14.94;93.58
68889;BME280;55930;47.412;8.790;2022-09-16T13:44:41;94144.06;;;14.97;95.24
68889;BME280;55930;47.412;8.790;2022-09-16T13:49:43;94144.31;;;14.93;93.83
68889;BME280;55930;47.412;8.790;2022-09-16T13:52:23;94143.28;;;15.02;93.20
68889;BME280;55930;47.412;8.790;2022-09-16T13:54:51;94139.94;;;14.96;94.27
68889;BME280;55930;47.412;8.790;2022-09-16T14:00:10;94132.41;;;15.29;86.99
68889;BME280;55930;47.412;8.790;2022-09-16T14:08:56;94157.34;;;15.08;94.02
68889;BME280;55930;47.412;8.790;2022-09-16T14:11:41;94150.94;;;14.86;94.46
68889;BME280;55930;47.412;8.790;2022-09-16T14:14:14;94157.81;;;14.76;93.28
68889;BME280;55930;47.412;8.790;2022-09-16T14:16:41;94161.66;;;14.81;93.44
68889;BME280;55930;47.412;8.790;2022-09-16T14:19:22;94158.84;;;15.03;87.14
68889;BME280;55930;47.412;8.790;2022-09-16T14:24:40;94154.81;;;15.56;86.42
68889;BME280;55930;47.412;8.790;2022-09-16T14:27:32;94157.59;;;15.69;85.28
68889;BME280;55930;47.412;8.790;2022-09-16T14:30:04;94152.06;;;15.86;79.13
68889;BME280;55930;47.412;8.790;2022-09-16T14:32:35;94157.25;;;15.79;86.76
68889;BME280;55930;47.412;8.790;2022-09-16T14:35:08;94150.78;;;15.68;81.93
68889;BME280;55930;47.412;8.790;2022-09-16T14:37:36;94153.78;;;15.59;82.28
68889;BME280;55930;47.412;8.790;2022-09-16T14:40:06;94147.63;;;15.40;81.85
68889;BME280;55930;47.412;8.790;2022-09-16T14:42:36;94145.47;;;15.33;81.46
68889;BME280;55930;47.412;8.790;2022-09-16T14:45:04;94145.75;;;15.00;80.73
68889;BME280;55930;47.412;8.790;2022-09-16T14:47:33;94147.50;;;15.51;80.82
68889;BME280;55930;47.412;8.790;2022-09-16T14:50:06;94145.66;;;15.41;82.33
68889;BME280;55930;47.412;8.790;2022-09-16T14:52:34;94145.84;;;15.18;79.95
68889;BME280;55930;47.412;8.790;2022-09-16T14:55:06;94152.28;;;15.04;80.71
68889;BME280;55930;47.412;8.790;2022-09-16T14:57:36;94151.13;;;14.94;82.68
68889;BME280;55930;47.412;8.790;2022-09-16T15:00:04;94153.78;;;15.00;84.11
68889;BME280;55930;47.412;8.790;2022-09-16T15:02:39;94156.50;;;14.88;82.58
68889;BME280;55930;47.412;8.790;2022-09-16T15:05:29;94156.25;;;14.92;83.08
68889;BME280;55930;47.412;8.790;2022-09-16T15:10:35;94154.09;;;14.85;82.71
68889;BME280;55930;47.412;8.790;2022-09-16T15:13:04;94155.34;;;14.78;81.33
68889;BME280;55930;47.412;8.790;2022-09-16T15:15:34;94157.78;;;14.82;83.93
68889;BME280;55930;47.412;8.790;2022-09-16T15:18:08;94165.63;;;14.63;82.52
68889;BME280;55930;47.412;8.790;2022-09-16T15:20:38;94159.09;;;14.64;82.48
68889;BME280;55930;47.412;8.790;2022-09-16T15:23:13;94159.00;;;14.23;83.16
68889;BME280;55930;47.412;8.790;2022-09-16T15:25:55;94147.66;;;14.06;84.48
68889;BME280;55930;47.412;8.790;2022-09-16T15:28:21;94158.75;;;14.27;84.71
68889;BME280;55930;47.412;8.790;2022-09-16T15:30:54;94156.28;;;14.40;83.95
68889;BME280;55930;47.412;8.790;2022-09-16T15:36:00;94155.44;;;14.62;79.40
68889;BME280;55930;47.412;8.790;2022-09-16T15:38:28;94157.75;;;14.41;77.19
68889;BME280;55930;47.412;8.790;2022-09-16T15:41:05;94163.53;;;14.45;77.70
68889;BME280;55930;47.412;8.790;2022-09-16T15:43:37;94163.09;;;14.41;78.67
68889;BME280;55930;47.412;8.790;2022-09-16T15:46:11;94154.31;;;14.51;77.50
68889;BME280;55930;47.412;8.790;2022-09-16T15:49:06;94155.81;;;14.41;76.99
68889;BME280;55930;47.412;8.790;2022-09-16T15:51:54;94163.81;;;14.41;77.38
68889;BME280;55930;47.412;8.790;2022-09-16T15:54:36;94176.19;;;14.33;76.79
68889;BME280;55930;47.412;8.790;2022-09-16T15:57:36;94180.88;;;14.16;85.15
68889;BME280;55930;47.412;8.790;2022-09-16T16:00:23;94188.69;;;13.92;86.52
68889;BME280;55930;47.412;8.790;2022-09-16T16:03:00;94171.47;;;14.04;85.75
68889;BME280;55930;47.412;8.790;2022-09-16T16:05:50;94177.34;;;13.74;88.08
68889;BME280;55930;47.412;8.790;2022-09-16T16:08:47;94171.69;;;14.06;82.19
68889;BME280;55930;47.412;8.790;2022-09-16T16:11:15;94171.94;;;14.02;82.89
68889;BME280;55930;47.412;8.790;2022-09-16T16:13:41;94174.56;;;14.19;77.07
68889;BME280;55930;47.412;8.790;2022-09-16T16:16:08;94175.56;;;14.10;79.03
68889;BME280;55930;47.412;8.790;2022-09-16T16:18:35;94178.91;;;14.16;82.70
68889;BME280;55930;47.412;8.790;2022-09-16T16:21:07;94177.28;;;13.97;83.84
68889;BME280;55930;47.412;8.790;2022-09-16T16:23:34;94174.38;;;14.00;80.40
68889;BME280;55930;47.412;8.790;2022-09-16T16:26:13;94180.66;;;14.03;85.19
68889;BME280;55930;47.412;8.790;2022-09-16T16:28:38;94184.63;;;13.52;89.46
68889;BME280;55930;47.412;8.790;2022-09-16T16:31:13;94188.75;;;13.58;90.49
68889;BME280;55930;47.412;8.790;2022-09-16T16:33:46;94183.91;;;13.68;89.75
68889;BME280;55930;47.412;8.790;2022-09-16T16:36:13;94188.47;;;13.73;90.36
68889;BME280;55930;47.412;8.790;2022-09-16T16:38:39;94192.63;;;13.57;89.62